Time;durP1;ratioP1;P1;durP2;ratioP2;P2;SDS_P1;SDS_P2;PMS_P1;PMS_P2;Temp;Humidity;BMP_temperature;BMP_pressure;BME280_temperature;BME280_humidity;BME280_pressure;Samples;Min_cycle;Max_cycle;Signal;HPM_P1;HPM_P2
2022/03/15 00:00:49;;;;;;;5.90;3.10;;;8.80;99.60;;;;;;4924501;29;20040;-76
2022/03/15 00:03:15;;;;;;;7.18;2.80;;;8.80;99.50;;;;;;4926634;29;20019;-76
2022/03/15 00:05:41;;;;;;;5.78;2.60;;;8.80;99.40;;;;;;4926117;29;20027;-76
2022/03/15 00:08:08;;;;;;;7.10;2.72;;;8.70;99.70;;;;;;4908173;29;20028;-77
2022/03/15 00:10:33;;;;;;;5.82;2.92;;;8.70;99.90;;;;;;4909777;29;20134;-76
2022/03/15 00:12:59;;;;;;;6.65;2.80;;;8.70;99.70;;;;;;4907679;29;20528;-76
2022/03/15 00:15:26;;;;;;;5.05;2.60;;;8.70;99.70;;;;;;4907750;29;20027;-77
2022/03/15 00:17:52;;;;;;;6.18;2.67;;;8.70;99.80;;;;;;4907423;29;20083;-77
2022/03/15 00:20:21;;;;;;;8.75;2.97;;;8.70;99.80;;;;;;4906318;29;20503;-75
2022/03/15 00:22:47;;;;;;;6.53;3.15;;;8.70;99.60;;;;;;4917178;29;20028;-77
2022/03/15 00:25:16;;;;;;;6.60;3.20;;;8.70;99.50;;;;;;4934561;29;20034;-76
2022/03/15 00:27:46;;;;;;;5.57;3.13;;;8.70;99.70;;;;;;4918372;29;20023;-76
2022/03/15 00:30:14;;;;;;;7.80;3.22;;;8.70;99.60;;;;;;4917853;29;20036;-76
2022/03/15 00:32:40;;;;;;;4.55;2.80;;;8.60;99.60;;;;;;4935437;29;20034;-76
2022/03/15 00:35:08;;;;;;;7.97;3.40;;;8.60;99.70;;;;;;4917696;29;20123;-75
2022/03/15 00:37:36;;;;;;;5.65;3.30;;;8.60;99.60;;;;;;4918387;29;20393;-76
2022/03/15 00:40:02;;;;;;;6.43;2.92;;;8.60;99.90;;;;;;4918335;29;20039;-76
2022/03/15 00:42:28;;;;;;;5.40;3.25;;;8.60;99.90;;;;;;4934719;29;20079;-77
2022/03/15 00:44:54;;;;;;;7.68;3.20;;;8.60;99.90;;;;;;4918135;29;20032;-76
2022/03/15 00:47:19;;;;;;;9.05;3.22;;;8.50;99.90;;;;;;4917601;29;20024;-76
2022/03/15 00:49:45;;;;;;;5.05;2.85;;;8.50;99.90;;;;;;4917825;29;20468;-76
2022/03/15 00:52:11;;;;;;;9.27;3.75;;;8.50;99.90;;;;;;4934459;29;20039;-76
2022/03/15 00:54:36;;;;;;;4.80;2.55;;;8.50;99.90;;;;;;4918292;29;20035;-77
2022/03/15 00:57:03;;;;;;;8.77;2.92;;;8.50;99.90;;;;;;4918394;29;20119;-77
2022/03/15 00:59:29;;;;;;;5.63;2.88;;;8.50;99.90;;;;;;4935241;29;20042;-77
2022/03/15 01:01:56;;;;;;;6.45;2.83;;;8.50;99.90;;;;;;4922049;29;20381;-77
2022/03/15 01:04:22;;;;;;;4.82;2.33;;;8.40;99.90;;;;;;4921239;29;20050;-76
2022/03/15 01:06:47;;;;;;;7.18;2.88;;;8.40;99.90;;;;;;4921628;29;20393;-76
2022/03/15 01:09:13;;;;;;;6.82;2.83;;;8.40;99.90;;;;;;4937814;29;20031;-76
2022/03/15 01:11:39;;;;;;;4.82;2.72;;;8.40;99.90;;;;;;4921580;29;20032;-76
2022/03/15 01:14:05;;;;;;;6.38;2.70;;;8.40;99.90;;;;;;4921731;29;20031;-76
2022/03/15 01:16:31;;;;;;;6.13;2.97;;;8.40;99.90;;;;;;4921404;29;20027;-77
2022/03/15 01:18:57;;;;;;;6.28;2.58;;;8.40;99.90;;;;;;4921739;29;20024;-77
2022/03/15 01:21:25;;;;;;;7.00;2.95;;;8.40;99.90;;;;;;4921190;29;20055;-76
2022/03/15 01:23:50;;;;;;;4.57;2.45;;;8.40;99.90;;;;;;4921713;29;20355;-76
2022/03/15 01:26:16;;;;;;;9.68;2.75;;;8.40;99.90;;;;;;4920995;29;20079;-76
2022/03/15 01:28:42;;;;;;;3.97;2.35;;;8.40;99.90;;;;;;4938812;29;20031;-76
2022/03/15 01:31:08;;;;;;;6.75;2.75;;;8.30;99.90;;;;;;4938074;29;20449;-75
2022/03/15 01:33:34;;;;;;;6.22;2.75;;;8.40;99.90;;;;;;4938383;29;20038;-76
2022/03/15 01:35:59;;;;;;;4.55;2.60;;;8.40;99.90;;;;;;4921368;29;20398;-76
2022/03/15 01:38:25;;;;;;;6.45;3.08;;;8.40;99.90;;;;;;4920746;29;20990;-76
2022/03/15 01:40:51;;;;;;;5.72;2.67;;;8.40;99.90;;;;;;4921332;29;20039;-76
2022/03/15 01:43:16;;;;;;;7.70;3.05;;;8.40;99.90;;;;;;4920613;29;20385;-76
2022/03/15 01:45:42;;;;;;;8.73;2.92;;;8.30;99.90;;;;;;4921478;29;20474;-76
2022/03/15 01:48:08;;;;;;;5.43;2.70;;;8.30;99.90;;;;;;4921019;29;20473;-74
2022/03/15 01:50:36;;;;;;;6.80;2.55;;;8.20;99.90;;;;;;4920533;29;20059;-76
2022/03/15 01:53:02;;;;;;;4.55;2.42;;;8.30;99.90;;;;;;4921200;29;20058;-76
2022/03/15 01:55:28;;;;;;;5.22;2.30;;;8.20;99.90;;;;;;4920374;29;20484;-76
2022/03/15 01:57:54;;;;;;;5.25;2.22;;;8.20;99.90;;;;;;4921107;29;20050;-76
2022/03/15 02:00:20;;;;;;;7.30;2.70;;;8.20;99.90;;;;;;4920125;29;20039;-76
2022/03/15 02:02:46;;;;;;;11.05;2.85;;;8.20;99.90;;;;;;4920857;29;20450;-76
2022/03/15 02:05:13;;;;;;;3.40;2.50;;;8.10;99.90;;;;;;4920073;29;20114;-75
2022/03/15 02:07:38;;;;;;;4.43;2.15;;;8.10;99.90;;;;;;4920943;29;20040;-76
2022/03/15 02:10:07;;;;;;;7.45;2.35;;;8.10;99.90;;;;;;4937868;29;20031;-76
2022/03/15 02:12:38;;;;;;;8.02;2.80;;;8.20;99.90;;;;;;4935713;29;20079;-76
2022/03/15 02:15:06;;;;;;;4.45;2.47;;;8.20;99.90;;;;;;4920599;29;20036;-76
2022/03/15 02:17:32;;;;;;;6.57;2.88;;;8.20;99.90;;;;;;4919980;29;20147;-76
2022/03/15 02:19:58;;;;;;;5.70;2.30;;;8.30;99.90;;;;;;4920555;29;20042;-76
2022/03/15 02:22:27;;;;;;;6.30;2.65;;;8.20;99.90;;;;;;4919908;29;20122;-76
2022/03/15 02:24:53;;;;;;;5.22;2.53;;;8.20;99.90;;;;;;4937587;29;20032;-76
2022/03/15 02:27:21;;;;;;;12.77;2.75;;;8.20;99.90;;;;;;4919870;29;20127;-76
2022/03/15 02:29:46;;;;;;;6.95;2.88;;;8.20;99.90;;;;;;4937556;29;20110;-76
2022/03/15 02:32:12;;;;;;;4.15;2.30;;;8.20;99.90;;;;;;4919880;29;20123;-75
2022/03/15 02:34:38;;;;;;;7.13;3.05;;;8.20;99.90;;;;;;4920556;29;20035;-77
2022/03/15 02:37:03;;;;;;;6.45;2.88;;;8.30;99.90;;;;;;4920719;29;20145;-77
2022/03/15 02:39:29;;;;;;;7.43;3.20;;;8.20;99.90;;;;;;4936776;29;20035;-76
2022/03/15 02:41:55;;;;;;;4.80;2.50;;;8.20;99.90;;;;;;4920155;29;20354;-77
2022/03/15 02:44:23;;;;;;;5.30;2.55;;;8.20;99.90;;;;;;4936764;29;20492;-76
2022/03/15 02:46:50;;;;;;;8.05;2.72;;;8.20;99.90;;;;;;4920172;29;20067;-76
2022/03/15 02:49:16;;;;;;;8.75;3.53;;;8.20;99.90;;;;;;4919419;29;20122;-75
2022/03/15 02:51:42;;;;;;;5.85;2.40;;;8.20;99.90;;;;;;4919993;29;20039;-76
2022/03/15 02:54:11;;;;;;;6.80;2.78;;;8.20;99.90;;;;;;4920139;29;20024;-76
2022/03/15 02:56:39;;;;;;;8.32;3.10;;;8.20;99.90;;;;;;4919335;29;20028;-76
2022/03/15 02:59:05;;;;;;;2.67;1.95;;;8.10;99.90;;;;;;4920110;29;20039;-76
2022/03/15 03:01:30;;;;;;;5.85;2.60;;;8.10;99.90;;;;;;4919164;29;20035;-76
2022/03/15 03:03:56;;;;;;;4.55;2.00;;;8.10;99.90;;;;;;4919826;29;20162;-76
2022/03/15 03:06:21;;;;;;;8.48;2.55;;;8.10;99.90;;;;;;4935898;29;20473;-76
2022/03/15 03:08:47;;;;;;;7.03;2.50;;;8.00;99.90;;;;;;4936635;29;20035;-77
2022/03/15 03:11:13;;;;;;;6.22;2.45;;;8.00;99.90;;;;;;4919355;29;20118;-75
2022/03/15 03:13:44;;;;;;;6.20;2.22;;;8.00;99.90;;;;;;4915677;29;20036;-77
2022/03/15 03:16:12;;;;;;;4.60;2.00;;;8.00;99.90;;;;;;4916228;29;20043;-77
2022/03/15 03:18:38;;;;;;;4.80;2.50;;;7.90;99.90;;;;;;4908154;29;20384;-76
2022/03/15 03:21:05;;;;;;;4.78;2.25;;;8.00;99.90;;;;;;4936608;29;20036;-76
2022/03/15 03:23:34;;;;;;;8.15;2.72;;;8.00;99.90;;;;;;4918588;29;20034;-77
2022/03/15 03:26:01;;;;;;;4.60;2.47;;;8.00;99.90;;;;;;4919417;29;20122;-77
2022/03/15 03:28:37;;;;;;;5.43;2.33;;;8.00;99.90;;;;;;4918792;29;20056;-77
2022/03/15 03:31:03;;;;;;;6.45;2.50;;;8.00;99.90;;;;;;4919346;29;20079;-76
2022/03/15 03:33:30;;;;;;;5.13;2.35;;;8.00;99.90;;;;;;4918544;29;20073;-76
2022/03/15 03:35:56;;;;;;;4.47;2.33;;;8.10;99.90;;;;;;4919238;29;20389;-76
2022/03/15 03:38:21;;;;;;;6.63;2.75;;;8.00;99.90;;;;;;4918314;29;20059;-75
2022/03/15 03:40:47;;;;;;;4.07;2.30;;;8.10;99.90;;;;;;4919094;29;20036;-75
2022/03/15 03:43:12;;;;;;;4.80;2.30;;;8.10;99.90;;;;;;4936105;29;20031;-76
2022/03/15 03:45:39;;;;;;;4.57;2.20;;;8.10;99.90;;;;;;4935488;29;20036;-76
2022/03/15 03:48:06;;;;;;;6.07;2.40;;;8.10;99.90;;;;;;4919288;29;20031;-76
2022/03/15 03:50:32;;;;;;;7.63;2.50;;;8.10;99.90;;;;;;4918042;29;20058;-76
2022/03/15 03:52:58;;;;;;;5.97;2.92;;;8.10;99.90;;;;;;4918864;29;20051;-76
2022/03/15 03:55:37;;;;;;;5.13;2.45;;;8.10;99.90;;;;;;5109568;27;20448;-76
2022/03/15 03:58:03;;;;;;;3.25;2.35;;;8.10;99.90;;;;;;5109010;28;20031;-76
2022/03/15 04:00:29;;;;;;;5.38;2.65;;;8.10;99.90;;;;;;5108346;28;20470;-76
2022/03/15 04:02:57;;;;;;;6.22;2.72;;;8.10;99.90;;;;;;5108911;28;20024;-76
2022/03/15 04:05:23;;;;;;;4.78;2.30;;;8.10;99.90;;;;;;5108237;28;20089;-75
2022/03/15 04:07:49;;;;;;;5.13;2.40;;;8.10;99.90;;;;;;5110347;28;20024;-77
2022/03/15 04:10:16;;;;;;;4.28;2.45;;;8.10;99.90;;;;;;5110441;28;20027;-76
2022/03/15 04:12:43;;;;;;;6.80;2.38;;;8.00;99.90;;;;;;5108908;28;20020;-77
2022/03/15 04:15:09;;;;;;;5.68;2.70;;;7.90;99.90;;;;;;5108684;28;20039;-77
2022/03/15 04:17:34;;;;;;;5.28;2.70;;;7.90;99.90;;;;;;5108368;28;20024;-77
2022/03/15 04:20:00;;;;;;;9.18;2.60;;;7.90;99.90;;;;;;5108804;28;20031;-77
2022/03/15 04:22:26;;;;;;;5.25;2.95;;;7.90;99.90;;;;;;5107860;28;20384;-76
2022/03/15 04:24:52;;;;;;;7.10;3.17;;;8.00;99.90;;;;;;5108368;28;20081;-76
2022/03/15 04:27:18;;;;;;;4.93;2.53;;;8.00;99.90;;;;;;5107991;28;20116;-76
2022/03/15 04:29:44;;;;;;;5.22;2.50;;;7.90;99.90;;;;;;5108154;28;20035;-76
2022/03/15 04:32:10;;;;;;;5.63;2.63;;;8.00;99.90;;;;;;5109368;28;20032;-76
2022/03/15 04:34:35;;;;;;;5.82;2.63;;;8.00;99.90;;;;;;5107489;28;20491;-77
2022/03/15 04:37:01;;;;;;;5.95;2.70;;;8.00;99.90;;;;;;5108255;28;20024;-77
2022/03/15 04:39:27;;;;;;;6.43;3.10;;;8.00;99.90;;;;;;5107121;28;20035;-77
2022/03/15 04:41:52;;;;;;;5.38;2.15;;;7.90;99.90;;;;;;5109297;28;20028;-76
2022/03/15 04:44:18;;;;;;;5.13;2.80;;;7.90;99.90;;;;;;5108947;28;20111;-77
2022/03/15 04:46:44;;;;;;;6.72;2.60;;;7.90;99.90;;;;;;5107322;28;20020;-76
2022/03/15 04:49:10;;;;;;;5.63;2.58;;;7.90;99.90;;;;;;5108081;28;20036;-76
2022/03/15 04:51:36;;;;;;;10.60;3.00;;;8.00;99.90;;;;;;5108577;28;20082;-78
2022/03/15 04:54:02;;;;;;;7.78;2.20;;;8.00;99.90;;;;;;5109203;28;20408;-76
2022/03/15 04:56:28;;;;;;;7.22;2.67;;;8.00;99.90;;;;;;5107317;28;20456;-76
2022/03/15 04:58:54;;;;;;;6.75;2.65;;;8.00;99.90;;;;;;5109163;28;20027;-78
2022/03/15 05:01:20;;;;;;;3.70;2.45;;;8.00;99.90;;;;;;5109294;28;20476;-79
2022/03/15 05:03:46;;;;;;;4.85;2.53;;;8.00;99.90;;;;;;5108345;28;20028;-78
2022/03/15 05:06:11;;;;;;;5.45;2.53;;;7.90;99.90;;;;;;5100309;28;20062;-77
2022/03/15 05:08:37;;;;;;;7.80;2.78;;;8.00;99.90;;;;;;5095050;28;20080;-78
2022/03/15 05:11:05;;;;;;;8.15;2.70;;;8.00;99.90;;;;;;5094610;28;20035;-77
2022/03/15 05:13:45;;;;;;;5.68;2.67;;;8.00;99.90;;;;;;5093092;28;20031;-77
2022/03/15 05:16:21;;;;;;;5.72;2.67;;;7.90;99.90;;;;;;5093870;28;20036;-76
2022/03/15 05:18:51;;;;;;;5.18;2.97;;;7.90;99.90;;;;;;5095274;28;20020;-76
2022/03/15 05:21:17;;;;;;;7.82;2.85;;;7.90;99.90;;;;;;5095160;28;20028;-76
2022/03/15 05:23:46;;;;;;;5.45;2.90;;;7.80;99.90;;;;;;5093095;28;20635;-76
2022/03/15 05:26:14;;;;;;;6.78;2.78;;;7.90;99.90;;;;;;5093784;28;20447;-76
2022/03/15 05:28:39;;;;;;;4.70;2.90;;;7.90;99.90;;;;;;5092963;28;20535;-76
2022/03/15 05:31:06;;;;;;;6.15;2.83;;;7.90;99.90;;;;;;5095035;28;20024;-78
2022/03/15 05:33:31;;;;;;;6.93;3.00;;;7.90;99.90;;;;;;5094333;28;20028;-78
2022/03/15 05:35:57;;;;;;;3.97;2.90;;;7.80;99.90;;;;;;5094247;28;20038;-78
2022/03/15 05:38:23;;;;;;;6.30;3.10;;;7.90;99.90;;;;;;5094829;28;20020;-77
2022/03/15 05:40:49;;;;;;;6.82;3.00;;;7.80;99.90;;;;;;5094017;28;20058;-78
2022/03/15 05:43:15;;;;;;;7.45;2.88;;;7.60;99.90;;;;;;5093917;28;20445;-78
2022/03/15 05:45:41;;;;;;;5.57;2.58;;;7.60;99.90;;;;;;5093211;28;20024;-78
2022/03/15 05:48:07;;;;;;;7.85;3.00;;;7.70;99.90;;;;;;5094775;28;20040;-78
2022/03/15 05:50:33;;;;;;;7.32;3.13;;;7.70;99.90;;;;;;5093873;28;20100;-78
2022/03/15 05:53:03;;;;;;;5.40;2.55;;;7.60;99.90;;;;;;5093534;28;20024;-78
2022/03/15 05:55:30;;;;;;;4.72;2.55;;;7.60;99.90;;;;;;5093357;28;20048;-77
2022/03/15 05:57:56;;;;;;;5.75;2.78;;;7.60;99.90;;;;;;5093682;28;20125;-78
2022/03/15 06:00:22;;;;;;;5.43;2.53;;;7.70;99.90;;;;;;5094640;28;20464;-76
2022/03/15 06:02:48;;;;;;;6.00;2.60;;;7.70;99.90;;;;;;5092705;28;20024;-78
2022/03/15 06:05:13;;;;;;;6.13;2.92;;;7.80;99.90;;;;;;5093603;28;20081;-78
2022/03/15 06:07:46;;;;;;;6.65;2.50;;;7.80;99.90;;;;;;5092939;28;20376;-78
2022/03/15 06:10:12;;;;;;;6.15;2.58;;;7.90;99.90;;;;;;5092987;28;20031;-76
2022/03/15 06:12:37;;;;;;;8.15;2.80;;;7.90;99.90;;;;;;5091730;28;20032;-76
2022/03/15 06:15:03;;;;;;;6.10;2.60;;;8.00;99.90;;;;;;5093943;28;20093;-74
2022/03/15 06:17:31;;;;;;;5.15;2.70;;;8.00;99.90;;;;;;5090945;28;20062;-75
2022/03/15 06:19:58;;;;;;;5.93;2.42;;;8.00;99.90;;;;;;5092761;28;20064;-75
2022/03/15 06:22:23;;;;;;;6.22;3.05;;;8.00;99.90;;;;;;5093559;28;20031;-74
2022/03/15 06:24:49;;;;;;;5.40;2.70;;;8.00;99.90;;;;;;5093449;28;20036;-75
2022/03/15 06:27:15;;;;;;;6.72;2.85;;;8.00;99.90;;;;;;5092597;28;20020;-76
2022/03/15 06:29:40;;;;;;;5.38;2.65;;;8.10;99.90;;;;;;5092027;28;20129;-75
2022/03/15 06:32:07;;;;;;;5.60;2.70;;;8.10;99.90;;;;;;5093953;28;20138;-76
2022/03/15 06:34:33;;;;;;;3.67;2.50;;;8.10;99.90;;;;;;5091452;28;20039;-74
2022/03/15 06:36:59;;;;;;;6.55;2.67;;;8.20;99.90;;;;;;5092262;28;20024;-74
2022/03/15 06:39:24;;;;;;;7.53;3.13;;;8.20;99.90;;;;;;5091968;28;20024;-73
2022/03/15 06:41:51;;;;;;;4.43;2.53;;;8.20;99.90;;;;;;5091773;28;20063;-75
2022/03/15 06:44:16;;;;;;;8.25;3.55;;;8.20;99.90;;;;;;5091714;28;20107;-75
2022/03/15 06:46:43;;;;;;;7.05;3.20;;;8.20;99.90;;;;;;5091307;28;20031;-74
2022/03/15 06:49:09;;;;;;;8.02;3.30;;;8.20;99.90;;;;;;5091982;28;20111;-74
2022/03/15 06:51:34;;;;;;;8.45;3.28;;;8.10;99.90;;;;;;5090960;28;20050;-74
2022/03/15 06:54:00;;;;;;;9.85;3.53;;;8.20;99.90;;;;;;5091411;28;20059;-74
2022/03/15 06:56:26;;;;;;;8.45;3.55;;;8.20;99.90;;;;;;5092447;28;20047;-74
2022/03/15 06:58:52;;;;;;;7.63;3.88;;;8.10;99.90;;;;;;5091500;28;20020;-74
2022/03/15 07:01:18;;;;;;;9.45;3.00;;;8.10;99.90;;;;;;5091748;28;20016;-74
2022/03/15 07:03:44;;;;;;;6.72;3.42;;;8.10;99.90;;;;;;5091014;28;20024;-74
2022/03/15 07:06:10;;;;;;;7.68;3.28;;;8.20;99.90;;;;;;5091655;28;20392;-74
2022/03/15 07:08:36;;;;;;;7.75;3.35;;;8.20;99.90;;;;;;5090921;28;20062;-74
2022/03/15 07:11:02;;;;;;;7.65;3.78;;;8.20;99.90;;;;;;5091300;28;20055;-75
2022/03/15 07:13:28;;;;;;;6.10;3.42;;;8.30;99.90;;;;;;5091028;28;20028;-74
2022/03/15 07:15:53;;;;;;;7.05;3.25;;;8.20;99.90;;;;;;5092805;28;20035;-75
2022/03/15 07:18:20;;;;;;;8.88;4.05;;;8.20;99.90;;;;;;5093236;28;20024;-75
2022/03/15 07:20:46;;;;;;;7.13;3.17;;;8.30;99.90;;;;;;5091216;28;20094;-76
2022/03/15 07:23:12;;;;;;;7.20;3.30;;;8.40;99.90;;;;;;5091728;28;20105;-75
2022/03/15 07:25:37;;;;;;;5.50;3.25;;;8.40;99.90;;;;;;5092204;28;20035;-76
2022/03/15 07:28:03;;;;;;;6.25;3.67;;;8.40;99.90;;;;;;5091736;28;20027;-76
2022/03/15 07:30:29;;;;;;;7.18;3.40;;;8.40;99.90;;;;;;5090738;28;20111;-73
2022/03/15 07:32:55;;;;;;;6.72;3.10;;;8.50;99.90;;;;;;5091215;28;20107;-76
2022/03/15 07:35:21;;;;;;;9.10;3.50;;;8.50;99.90;;;;;;5091549;28;20032;-76
2022/03/15 07:37:55;;;;;;;10.40;4.15;;;8.50;99.90;;;;;;5091986;28;20345;-76
2022/03/15 07:40:22;;;;;;;13.65;3.72;;;8.50;99.90;;;;;;5091209;28;20028;-75
2022/03/15 07:42:49;;;;;;;15.50;4.18;;;8.50;99.90;;;;;;5091024;28;20079;-76
2022/03/15 07:45:15;;;;;;;9.55;3.50;;;8.50;99.90;;;;;;5091489;28;20464;-76
2022/03/15 07:47:41;;;;;;;9.23;3.38;;;8.50;99.90;;;;;;5091022;28;20464;-76
2022/03/15 07:50:07;;;;;;;6.10;3.33;;;8.60;99.90;;;;;;5092788;28;20031;-76
2022/03/15 07:52:33;;;;;;;5.05;3.03;;;8.60;99.90;;;;;;5090808;28;20089;-76
2022/03/15 07:54:58;;;;;;;7.68;3.35;;;8.60;99.90;;;;;;5091340;28;20044;-76
2022/03/15 07:57:25;;;;;;;5.13;3.10;;;8.60;99.90;;;;;;5091543;28;20028;-75
2022/03/15 07:59:51;;;;;;;11.27;3.50;;;8.50;99.90;;;;;;5090401;28;20262;-75
2022/03/15 08:02:17;;;;;;;7.78;3.15;;;8.60;99.90;;;;;;5089965;28;20517;-73
2022/03/15 08:04:43;;;;;;;7.53;2.78;;;8.70;99.90;;;;;;5090231;28;20488;-73
2022/03/15 08:07:09;;;;;;;5.57;3.80;;;8.70;99.90;;;;;;5090807;28;20028;-73
2022/03/15 08:09:35;;;;;;;6.53;3.25;;;8.70;99.90;;;;;;5089907;28;20028;-74
2022/03/15 08:12:01;;;;;;;5.68;3.05;;;8.70;99.90;;;;;;5092079;28;20070;-73
2022/03/15 08:14:26;;;;;;;7.15;3.35;;;8.80;99.90;;;;;;5094537;28;20428;-73
2022/03/15 08:16:52;;;;;;;9.00;3.10;;;8.80;99.90;;;;;;5090516;28;20602;-72
2022/03/15 08:19:18;;;;;;;6.05;2.83;;;8.90;99.90;;;;;;5093791;28;20099;-72
2022/03/15 08:21:44;;;;;;;6.78;2.95;;;8.90;99.90;;;;;;5095090;28;20024;-73
2022/03/15 08:24:11;;;;;;;7.68;3.20;;;9.00;99.90;;;;;;5096686;28;20042;-74
2022/03/15 08:26:38;;;;;;;8.85;3.33;;;9.00;99.90;;;;;;5094705;28;20023;-76
2022/03/15 08:29:05;;;;;;;5.65;2.92;;;9.00;99.90;;;;;;5094581;28;20025;-76
2022/03/15 08:31:31;;;;;;;5.82;3.25;;;9.10;99.90;;;;;;5090208;28;20119;-75
2022/03/15 08:33:56;;;;;;;5.15;2.85;;;9.10;99.90;;;;;;5091138;28;20512;-77
2022/03/15 08:36:22;;;;;;;6.93;2.90;;;9.10;99.90;;;;;;5090061;28;20043;-76
2022/03/15 08:38:48;;;;;;;6.00;2.83;;;9.10;99.90;;;;;;5090260;28;20027;-77
2022/03/15 08:41:14;;;;;;;6.07;3.15;;;9.10;99.90;;;;;;5091690;28;20058;-77
2022/03/15 08:43:40;;;;;;;4.30;2.90;;;9.20;99.90;;;;;;5093996;28;20031;-75
2022/03/15 08:46:06;;;;;;;9.23;3.28;;;9.20;99.90;;;;;;5093687;28;20466;-75
2022/03/15 08:48:32;;;;;;;5.72;3.38;;;9.30;99.90;;;;;;5093582;28;20039;-76
2022/03/15 08:51:00;;;;;;;6.75;3.17;;;9.30;99.90;;;;;;5093259;28;20092;-76
2022/03/15 08:53:32;;;;;;;8.90;3.63;;;9.30;99.90;;;;;;5089037;28;20020;-76
2022/03/15 08:55:57;;;;;;;7.63;3.78;;;9.30;99.90;;;;;;5093658;28;20024;-76
2022/03/15 08:58:23;;;;;;;5.75;3.28;;;9.30;99.90;;;;;;5095187;28;20028;-76
2022/03/15 09:00:49;;;;;;;5.55;3.42;;;9.40;99.90;;;;;;5092952;28;20124;-75
2022/03/15 09:03:15;;;;;;;9.32;3.88;;;9.30;99.90;;;;;;5089290;28;20020;-75
2022/03/15 09:05:40;;;;;;;9.70;3.83;;;9.40;99.90;;;;;;5098016;28;20044;-74
2022/03/15 09:08:06;;;;;;;5.05;3.13;;;9.40;99.90;;;;;;5104222;28;20024;-73
2022/03/15 09:10:32;;;;;;;9.40;3.60;;;9.40;99.90;;;;;;5104162;28;20082;-73
2022/03/15 09:12:57;;;;;;;13.07;3.95;;;9.50;99.90;;;;;;5107358;28;20038;-73
2022/03/15 09:15:23;;;;;;;7.03;4.03;;;9.40;99.90;;;;;;5097501;28;20074;-75
2022/03/15 09:17:49;;;;;;;8.35;3.90;;;9.50;99.90;;;;;;5101268;28;20028;-75
2022/03/15 09:20:16;;;;;;;12.27;4.30;;;9.40;99.90;;;;;;5096641;28;20024;-76
2022/03/15 09:22:41;;;;;;;5.97;3.50;;;9.40;99.90;;;;;;5105785;28;20034;-76
2022/03/15 09:25:08;;;;;;;8.35;4.03;;;9.30;99.90;;;;;;5095402;28;20031;-74
2022/03/15 09:27:33;;;;;;;8.63;3.97;;;9.30;99.90;;;;;;5103561;28;20038;-74
2022/03/15 09:29:59;;;;;;;9.20;4.20;;;9.30;99.90;;;;;;5089818;28;20115;-74
2022/03/15 09:32:26;;;;;;;8.25;4.50;;;9.40;99.90;;;;;;5088041;28;20044;-73
2022/03/15 09:34:51;;;;;;;8.45;4.13;;;9.40;99.90;;;;;;5089735;28;20488;-74
2022/03/15 09:37:18;;;;;;;7.68;4.07;;;9.40;99.90;;;;;;5094991;28;20058;-73
2022/03/15 09:39:45;;;;;;;10.55;4.20;;;9.50;99.90;;;;;;5110079;28;20037;-73
2022/03/15 09:42:11;;;;;;;8.95;3.95;;;9.50;99.90;;;;;;5104953;28;20034;-75
2022/03/15 09:44:39;;;;;;;9.55;4.30;;;9.50;99.90;;;;;;5107918;27;20039;-73
2022/03/15 09:47:08;;;;;;;12.57;4.50;;;9.50;99.90;;;;;;5106853;28;20028;-74
2022/03/15 09:49:36;;;;;;;6.85;3.95;;;9.40;99.90;;;;;;5096816;28;20492;-74
2022/03/15 09:52:04;;;;;;;8.90;4.22;;;9.40;99.90;;;;;;5094141;28;20024;-73
2022/03/15 09:54:30;;;;;;;10.00;4.70;;;9.40;99.90;;;;;;5104289;28;20412;-73
2022/03/15 09:56:57;;;;;;;9.77;3.92;;;9.40;99.90;;;;;;5092677;28;20096;-74
2022/03/15 09:59:24;;;;;;;8.57;4.07;;;9.40;99.90;;;;;;5105971;28;20020;-75
2022/03/15 10:01:53;;;;;;;9.75;4.10;;;9.40;99.90;;;;;;5096302;28;20487;-74
2022/03/15 10:04:20;;;;;;;7.90;4.15;;;9.40;99.90;;;;;;5096332;28;20475;-74
2022/03/15 10:06:46;;;;;;;8.25;3.78;;;9.40;99.90;;;;;;5092910;28;20439;-74
2022/03/15 10:09:13;;;;;;;8.40;4.07;;;9.30;99.90;;;;;;5090542;28;20047;-73
2022/03/15 10:11:39;;;;;;;9.25;4.10;;;9.30;99.90;;;;;;5089575;28;20076;-73
2022/03/15 10:14:06;;;;;;;7.70;4.13;;;9.30;99.90;;;;;;5090105;28;20423;-73
2022/03/15 10:16:33;;;;;;;7.85;4.10;;;9.40;99.90;;;;;;5090440;28;20024;-74
2022/03/15 10:19:00;;;;;;;6.03;3.67;;;9.50;99.90;;;;;;5089677;28;20055;-74
2022/03/15 10:21:50;;;;;;;13.57;4.50;;;9.50;99.90;;;;;;5090038;28;20043;-74
2022/03/15 10:24:18;;;;;;;7.10;4.22;;;9.50;99.90;;;;;;5091079;28;20035;-75
2022/03/15 10:26:47;;;;;;;9.35;4.20;;;9.50;99.90;;;;;;5085915;28;20026;-75
2022/03/15 10:29:15;;;;;;;7.85;4.38;;;9.50;99.90;;;;;;5089939;28;20028;-74
2022/03/15 10:31:42;;;;;;;8.32;4.18;;;9.50;99.90;;;;;;5090657;28;20028;-74
2022/03/15 10:34:08;;;;;;;9.35;4.18;;;9.60;99.90;;;;;;5088953;28;20043;-74
2022/03/15 10:36:56;;;;;;;9.13;4.13;;;9.60;99.90;;;;;;5091229;28;20417;-74
2022/03/15 10:39:23;;;;;;;7.22;4.15;;;9.60;99.90;;;;;;5086906;28;20047;-74
2022/03/15 10:41:54;;;;;;;8.07;4.38;;;9.60;99.90;;;;;;5093064;28;20081;-75
2022/03/15 10:44:25;;;;;;;9.93;4.55;;;9.50;99.90;;;;;;5096595;28;20053;-76
2022/03/15 10:47:09;;;;;;;9.20;5.00;;;9.50;99.90;;;;;;5101907;28;20028;-75
2022/03/15 10:49:59;;;;;;;10.38;5.07;;;9.50;99.90;;;;;;5078732;28;20093;-75
2022/03/15 10:52:33;;;;;;;10.60;4.68;;;9.50;99.90;;;;;;5089992;28;20468;-74
2022/03/15 10:55:26;;;;;;;11.00;4.35;;;9.50;99.90;;;;;;5090390;28;20048;-76
2022/03/15 10:57:58;;;;;;;10.07;4.65;;;9.50;99.90;;;;;;5095979;28;20594;-74
2022/03/15 11:00:26;;;;;;;8.30;4.45;;;9.50;99.90;;;;;;5096771;28;20028;-74
2022/03/15 11:02:53;;;;;;;10.45;4.30;;;9.50;99.90;;;;;;5090655;28;20126;-75
2022/03/15 11:05:39;;;;;;;10.30;4.28;;;9.60;99.90;;;;;;5090055;28;20028;-75
2022/03/15 11:08:14;;;;;;;12.13;4.53;;;9.70;99.90;;;;;;5100800;28;20038;-76
2022/03/15 11:10:44;;;;;;;10.27;4.45;;;9.80;99.90;;;;;;5097534;27;20024;-75
2022/03/15 11:13:11;;;;;;;11.85;4.65;;;9.90;99.90;;;;;;5109729;28;20046;-75
2022/03/15 11:15:40;;;;;;;10.18;4.07;;;9.90;99.90;;;;;;5111851;28;20031;-76
2022/03/15 11:18:07;;;;;;;8.93;4.50;;;9.90;99.90;;;;;;5111398;28;20069;-76
2022/03/15 11:20:36;;;;;;;10.65;4.47;;;10.00;99.90;;;;;;5112044;28;20027;-75
2022/03/15 11:23:05;;;;;;;9.45;4.30;;;10.00;99.90;;;;;;5094090;28;20111;-75
2022/03/15 11:25:37;;;;;;;8.20;3.92;;;10.10;99.90;;;;;;5107419;28;20043;-75
2022/03/15 11:28:16;;;;;;;11.40;4.45;;;10.10;99.90;;;;;;5100077;28;20069;-75
2022/03/15 11:30:42;;;;;;;8.02;4.22;;;10.20;99.90;;;;;;5092885;28;20028;-76
2022/03/15 11:33:10;;;;;;;8.70;4.32;;;10.20;99.90;;;;;;5104673;28;20380;-76
2022/03/15 11:35:38;;;;;;;9.13;4.03;;;10.20;99.90;;;;;;5111669;28;20042;-76
2022/03/15 11:38:07;;;;;;;8.82;4.25;;;10.30;99.90;;;;;;5101768;28;20020;-75
2022/03/15 11:40:33;;;;;;;10.00;4.38;;;10.30;99.90;;;;;;5091409;28;20024;-77
2022/03/15 11:43:22;;;;;;;7.07;3.90;;;10.40;99.90;;;;;;5092691;28;20178;-77
2022/03/15 11:46:03;;;;;;;7.55;3.85;;;10.50;99.90;;;;;;5067934;28;20047;-78
2022/03/15 11:49:02;;;;;;;9.75;4.05;;;10.50;99.90;;;;;;5105751;28;20028;-77
2022/03/15 11:51:58;;;;;;;10.15;4.10;;;10.40;99.90;;;;;;5080934;28;20039;-75
2022/03/15 11:54:36;;;;;;;10.52;4.20;;;10.30;99.90;;;;;;5099757;28;20056;-76
2022/03/15 11:57:21;;;;;;;8.68;3.60;;;10.30;99.90;;;;;;5106999;28;20027;-74
2022/03/15 11:59:51;;;;;;;8.68;3.72;;;10.30;99.90;;;;;;5093571;28;20024;-75
2022/03/15 12:02:41;;;;;;;10.77;4.28;;;10.30;99.90;;;;;;5111946;28;20076;-75
2022/03/15 12:05:20;;;;;;;7.72;3.80;;;10.30;99.90;;;;;;5093509;28;20035;-76
2022/03/15 12:08:05;;;;;;;7.72;3.90;;;10.30;99.90;;;;;;5103426;28;20029;-75
2022/03/15 12:10:37;;;;;;;8.20;3.97;;;10.40;99.90;;;;;;5096188;28;20039;-75
2022/03/15 12:13:05;;;;;;;10.75;4.00;;;10.30;99.90;;;;;;5090700;28;20105;-75
2022/03/15 12:15:45;;;;;;;7.38;3.90;;;10.30;99.90;;;;;;5098779;28;20056;-75
2022/03/15 12:18:23;;;;;;;8.68;4.00;;;10.30;99.90;;;;;;5092407;28;20032;-74
2022/03/15 12:21:04;;;;;;;8.60;4.20;;;10.40;99.90;;;;;;5094525;28;20024;-74
2022/03/15 12:23:45;;;;;;;9.55;3.72;;;10.40;99.90;;;;;;5094638;28;20036;-77
2022/03/15 12:26:26;;;;;;;10.02;4.47;;;10.40;99.90;;;;;;5098892;28;20111;-75
2022/03/15 12:29:07;;;;;;;8.05;3.90;;;10.50;99.90;;;;;;5104489;28;20025;-74
2022/03/15 12:31:46;;;;;;;7.00;4.20;;;10.60;99.90;;;;;;5094200;28;20110;-74
2022/03/15 12:34:14;;;;;;;12.30;4.72;;;10.80;99.90;;;;;;5094357;27;20316;-75
2022/03/15 12:36:59;;;;;;;12.90;5.03;;;10.80;99.90;;;;;;5096255;28;20365;-74
2022/03/15 12:39:30;;;;;;;7.80;4.00;;;10.90;99.90;;;;;;5092607;28;20019;-74
2022/03/15 12:42:04;;;;;;;10.32;4.10;;;10.90;99.90;;;;;;5104829;28;20021;-74
2022/03/15 12:44:43;;;;;;;7.60;4.45;;;11.10;99.90;;;;;;5095475;28;20031;-74
2022/03/15 12:47:10;;;;;;;11.02;3.88;;;11.30;99.90;;;;;;5093266;28;20134;-74
2022/03/15 12:49:36;;;;;;;12.38;4.13;;;11.40;99.90;;;;;;5094725;28;20099;-76
2022/03/15 12:52:10;;;;;;;7.05;4.13;;;11.50;99.90;;;;;;5093622;28;20162;-76
2022/03/15 12:54:36;;;;;;;9.93;4.20;;;11.70;99.90;;;;;;5089538;28;20052;-76
2022/03/15 12:57:14;;;;;;;6.75;3.30;;;11.70;99.90;;;;;;5094438;28;20011;-76
2022/03/15 12:59:40;;;;;;;10.15;4.20;;;11.80;99.90;;;;;;5094430;28;20028;-76